sensor_id;sensor_type;location;lat;lon;timestamp;temperature;humidity
78611;SHT30;67932;50.474;4.436;2023-05-17T00:01:31;8.85;82.62
78611;SHT30;67932;50.474;4.436;2023-05-17T00:03:57;8.76;82.82
78611;SHT30;67932;50.474;4.436;2023-05-17T00:06:24;8.75;82.98
78611;SHT30;67932;50.474;4.436;2023-05-17T00:08:50;8.64;83.20
78611;SHT30;67932;50.474;4.436;2023-05-17T00:11:16;8.61;83.46
78611;SHT30;67932;50.474;4.436;2023-05-17T00:13:43;8.55;83.60
78611;SHT30;67932;50.474;4.436;2023-05-17T00:16:09;8.54;83.61
78611;SHT30;67932;50.474;4.436;2023-05-17T00:18:35;8.52;83.83
78611;SHT30;67932;50.474;4.436;2023-05-17T00:21:02;8.49;83.77
78611;SHT30;67932;50.474;4.436;2023-05-17T00:23:28;8.56;83.75
78611;SHT30;67932;50.474;4.436;2023-05-17T00:25:55;8.51;83.81
78611;SHT30;67932;50.474;4.436;2023-05-17T00:28:21;8.61;83.48
78611;SHT30;67932;50.474;4.436;2023-05-17T00:30:47;8.52;83.71
78611;SHT30;67932;50.474;4.436;2023-05-17T00:33:14;8.42;84.22
78611;SHT30;67932;50.474;4.436;2023-05-17T00:35:40;8.34;84.43
78611;SHT30;67932;50.474;4.436;2023-05-17T00:38:06;8.27;84.80
78611;SHT30;67932;50.474;4.436;2023-05-17T00:40:32;8.30;84.78
78611;SHT30;67932;50.474;4.436;2023-05-17T00:42:59;8.24;84.86
78611;SHT30;67932;50.474;4.436;2023-05-17T00:45:25;8.20;85.03
78611;SHT30;67932;50.474;4.436;2023-05-17T00:47:51;8.15;85.12
78611;SHT30;67932;50.474;4.436;2023-05-17T00:50:18;8.14;85.21
78611;SHT30;67932;50.474;4.436;2023-05-17T00:52:44;8.15;85.17
78611;SHT30;67932;50.474;4.436;2023-05-17T00:55:11;8.13;85.29
78611;SHT30;67932;50.474;4.436;2023-05-17T00:57:37;8.08;85.41
78611;SHT30;67932;50.474;4.436;2023-05-17T01:00:04;8.10;85.50
78611;SHT30;67932;50.474;4.436;2023-05-17T01:02:31;8.17;85.63
78611;SHT30;67932;50.474;4.436;2023-05-17T01:04:57;8.08;85.67
78611;SHT30;67932;50.474;4.436;2023-05-17T01:07:24;8.17;85.47
78611;SHT30;67932;50.474;4.436;2023-05-17T01:09:50;8.15;85.42
78611;SHT30;67932;50.474;4.436;2023-05-17T01:15:55;8.13;85.38
78611;SHT30;67932;50.474;4.436;2023-05-17T01:20:46;8.11;85.89
78611;SHT30;67932;50.474;4.436;2023-05-17T01:26:38;8.04;85.80
78611;SHT30;67932;50.474;4.436;2023-05-17T01:29:07;7.93;86.34
78611;SHT30;67932;50.474;4.436;2023-05-17T01:31:35;7.94;86.58
78611;SHT30;67932;50.474;4.436;2023-05-17T01:34:07;8.04;86.16
78611;SHT30;67932;50.474;4.436;2023-05-17T01:36:33;8.03;85.90
78611;SHT30;67932;50.474;4.436;2023-05-17T01:39:00;7.97;86.09
78611;SHT30;67932;50.474;4.436;2023-05-17T01:41:35;7.84;86.57
78611;SHT30;67932;50.474;4.436;2023-05-17T01:44:06;7.80;87.02
78611;SHT30;67932;50.474;4.436;2023-05-17T01:46:40;7.79;87.13
78611;SHT30;67932;50.474;4.436;2023-05-17T01:49:10;7.79;87.13
78611;SHT30;67932;50.474;4.436;2023-05-17T01:51:47;7.79;86.94
78611;SHT30;67932;50.474;4.436;2023-05-17T01:54:19;7.73;87.02
78611;SHT30;67932;50.474;4.436;2023-05-17T01:56:50;7.69;87.41
78611;SHT30;67932;50.474;4.436;2023-05-17T01:59:22;7.74;87.48
78611;SHT30;67932;50.474;4.436;2023-05-17T02:02:00;7.71;87.32
78611;SHT30;67932;50.474;4.436;2023-05-17T02:04:34;7.67;87.19
78611;SHT30;67932;50.474;4.436;2023-05-17T02:07:01;7.67;87.27
78611;SHT30;67932;50.474;4.436;2023-05-17T02:09:28;7.67;87.22
78611;SHT30;67932;50.474;4.436;2023-05-17T02:11:54;7.66;87.40
78611;SHT30;67932;50.474;4.436;2023-05-17T02:14:21;7.60;87.50
78611;SHT30;67932;50.474;4.436;2023-05-17T02:16:47;7.66;87.66
78611;SHT30;67932;50.474;4.436;2023-05-17T02:19:13;7.65;87.47
78611;SHT30;67932;50.474;4.436;2023-05-17T02:21:40;7.65;87.78
78611;SHT30;67932;50.474;4.436;2023-05-17T02:24:06;7.67;87.50
78611;SHT30;67932;50.474;4.436;2023-05-17T02:26:32;7.66;87.44
78611;SHT30;67932;50.474;4.436;2023-05-17T02:28:59;7.65;87.32
78611;SHT30;67932;50.474;4.436;2023-05-17T02:31:25;7.65;87.47
78611;SHT30;67932;50.474;4.436;2023-05-17T02:33:54;7.63;87.53
78611;SHT30;67932;50.474;4.436;2023-05-17T02:36:21;7.62;87.67
78611;SHT30;67932;50.474;4.436;2023-05-17T02:38:47;7.60;87.53
78611;SHT30;67932;50.474;4.436;2023-05-17T02:41:13;7.65;87.72
78611;SHT30;67932;50.474;4.436;2023-05-17T02:43:39;7.62;87.72
78611;SHT30;67932;50.474;4.436;2023-05-17T02:46:05;7.63;87.87
78611;SHT30;67932;50.474;4.436;2023-05-17T02:48:32;7.57;87.61
78611;SHT30;67932;50.474;4.436;2023-05-17T02:50:58;7.60;87.57
78611;SHT30;67932;50.474;4.436;2023-05-17T02:53:24;7.62;87.55
78611;SHT30;67932;50.474;4.436;2023-05-17T02:55:50;7.59;87.62
78611;SHT30;67932;50.474;4.436;2023-05-17T02:58:17;7.55;87.65
78611;SHT30;67932;50.474;4.436;2023-05-17T03:00:46;7.62;87.85
78611;SHT30;67932;50.474;4.436;2023-05-17T03:03:12;7.59;87.66
78611;SHT30;67932;50.474;4.436;2023-05-17T03:05:39;7.57;87.63
78611;SHT30;67932;50.474;4.436;2023-05-17T03:08:05;7.53;87.79
78611;SHT30;67932;50.474;4.436;2023-05-17T03:10:31;7.49;87.89
78611;SHT30;67932;50.474;4.436;2023-05-17T03:12:57;7.40;87.81
78611;SHT30;67932;50.474;4.436;2023-05-17T03:15:24;7.30;87.91
78611;SHT30;67932;50.474;4.436;2023-05-17T03:17:54;7.25;88.54
78611;SHT30;67932;50.474;4.436;2023-05-17T03:20:22;7.22;88.48
78611;SHT30;67932;50.474;4.436;2023-05-17T03:22:48;7.19;88.60
78611;SHT30;67932;50.474;4.436;2023-05-17T03:25:14;7.16;88.84
78611;SHT30;67932;50.474;4.436;2023-05-17T03:27:41;7.27;88.69
78611;SHT30;67932;50.474;4.436;2023-05-17T03:30:07;7.29;88.52
78611;SHT30;67932;50.474;4.436;2023-05-17T03:32:33;7.35;88.45
78611;SHT30;67932;50.474;4.436;2023-05-17T03:35:00;7.32;88.67
78611;SHT30;67932;50.474;4.436;2023-05-17T03:37:26;7.26;88.43
78611;SHT30;67932;50.474;4.436;2023-05-17T03:39:52;7.15;88.42
78611;SHT30;67932;50.474;4.436;2023-05-17T03:42:19;7.06;88.55
78611;SHT30;67932;50.474;4.436;2023-05-17T03:44:45;6.96;88.83
78611;SHT30;67932;50.474;4.436;2023-05-17T03:47:11;6.94;89.30
78611;SHT30;67932;50.474;4.436;2023-05-17T03:49:37;6.94;89.46
78611;SHT30;67932;50.474;4.436;2023-05-17T03:52:04;6.96;89.68
78611;SHT30;67932;50.474;4.436;2023-05-17T03:54:30;7.06;89.25
78611;SHT30;67932;50.474;4.436;2023-05-17T03:56:56;7.12;89.03
78611;SHT30;67932;50.474;4.436;2023-05-17T03:59:22;7.15;88.69
78611;SHT30;67932;50.474;4.436;2023-05-17T04:01:49;7.14;88.90
78611;SHT30;67932;50.474;4.436;2023-05-17T04:04:15;7.12;89.34
78611;SHT30;67932;50.474;4.436;2023-05-17T04:06:41;7.18;88.92
78611;SHT30;67932;50.474;4.436;2023-05-17T04:09:07;7.25;88.89
78611;SHT30;67932;50.474;4.436;2023-05-17T04:11:35;7.35;88.25
78611;SHT30;67932;50.474;4.436;2023-05-17T04:14:03;7.40;88.66
78611;SHT30;67932;50.474;4.436;2023-05-17T04:16:29;7.33;88.38
78611;SHT30;67932;50.474;4.436;2023-05-17T04:18:58;7.30;88.57
78611;SHT30;67932;50.474;4.436;2023-05-17T04:21:24;7.27;89.11
78611;SHT30;67932;50.474;4.436;2023-05-17T04:23:50;7.25;89.23
78611;SHT30;67932;50.474;4.436;2023-05-17T04:26:17;7.26;89.19
78611;SHT30;67932;50.474;4.436;2023-05-17T04:28:44;7.25;88.17
78611;SHT30;67932;50.474;4.436;2023-05-17T04:31:12;7.40;87.49
78611;SHT30;67932;50.474;4.436;2023-05-17T04:33:38;7.42;87.57
78611;SHT30;67932;50.474;4.436;2023-05-17T04:36:05;7.39;87.90
78611;SHT30;67932;50.474;4.436;2023-05-17T04:38:31;7.35;88.55
78611;SHT30;67932;50.474;4.436;2023-05-17T04:41:04;7.42;88.84
78611;SHT30;67932;50.474;4.436;2023-05-17T04:43:32;7.47;88.95
78611;SHT30;67932;50.474;4.436;2023-05-17T04:45:59;7.56;88.94
78611;SHT30;67932;50.474;4.436;2023-05-17T04:48:25;7.60;88.49
78611;SHT30;67932;50.474;4.436;2023-05-17T04:50:52;7.74;88.12
78611;SHT30;67932;50.474;4.436;2023-05-17T04:53:19;7.71;88.09
78611;SHT30;67932;50.474;4.436;2023-05-17T04:55:45;7.74;88.18
78611;SHT30;67932;50.474;4.436;2023-05-17T04:58:13;7.74;88.65
78611;SHT30;67932;50.474;4.436;2023-05-17T05:00:39;7.74;88.51
78611;SHT30;67932;50.474;4.436;2023-05-17T05:03:06;7.80;88.22
78611;SHT30;67932;50.474;4.436;2023-05-17T05:05:32;7.81;88.33
78611;SHT30;67932;50.474;4.436;2023-05-17T05:07:58;7.95;88.11
78611;SHT30;67932;50.474;4.436;2023-05-17T05:10:25;7.98;88.09
78611;SHT30;67932;50.474;4.436;2023-05-17T05:12:53;8.01;88.19
78611;SHT30;67932;50.474;4.436;2023-05-17T05:15:19;8.15;87.88
78611;SHT30;67932;50.474;4.436;2023-05-17T05:17:46;8.17;87.73
78611;SHT30;67932;50.474;4.436;2023-05-17T05:20:13;8.31;87.95
78611;SHT30;67932;50.474;4.436;2023-05-17T05:22:39;8.34;87.56
78611;SHT30;67932;50.474;4.436;2023-05-17T05:25:06;8.38;87.50
78611;SHT30;67932;50.474;4.436;2023-05-17T05:27:32;8.44;87.34
78611;SHT30;67932;50.474;4.436;2023-05-17T05:30:01;8.42;87.64
78611;SHT30;67932;50.474;4.436;2023-05-17T05:32:27;8.52;87.41
78611;SHT30;67932;50.474;4.436;2023-05-17T05:34:53;8.59;87.68
78611;SHT30;67932;50.474;4.436;2023-05-17T05:37:20;8.62;87.51
78611;SHT30;67932;50.474;4.436;2023-05-17T05:39:47;8.73;87.54
78611;SHT30;67932;50.474;4.436;2023-05-17T05:42:14;8.82;87.41
78611;SHT30;67932;50.474;4.436;2023-05-17T05:44:40;8.99;86.75
78611;SHT30;67932;50.474;4.436;2023-05-17T05:47:06;9.02;86.12
78611;SHT30;67932;50.474;4.436;2023-05-17T05:49:33;9.02;86.55
78611;SHT30;67932;50.474;4.436;2023-05-17T05:51:59;9.06;86.81
78611;SHT30;67932;50.474;4.436;2023-05-17T05:54:25;9.15;86.59
78611;SHT30;67932;50.474;4.436;2023-05-17T05:56:52;9.20;86.76
78611;SHT30;67932;50.474;4.436;2023-05-17T05:59:19;9.34;86.28
78611;SHT30;67932;50.474;4.436;2023-05-17T06:01:45;9.34;86.22
78611;SHT30;67932;50.474;4.436;2023-05-17T06:04:12;9.37;86.46
78611;SHT30;67932;50.474;4.436;2023-05-17T06:06:40;9.36;87.12
78611;SHT30;67932;50.474;4.436;2023-05-17T06:09:07;9.39;85.93
78611;SHT30;67932;50.474;4.436;2023-05-17T06:11:37;9.48;85.82
78611;SHT30;67932;50.474;4.436;2023-05-17T06:14:04;9.47;85.61
78611;SHT30;67932;50.474;4.436;2023-05-17T06:16:30;9.54;85.55
78611;SHT30;67932;50.474;4.436;2023-05-17T06:18:57;9.60;85.46
78611;SHT30;67932;50.474;4.436;2023-05-17T06:21:23;9.50;85.53
78611;SHT30;67932;50.474;4.436;2023-05-17T06:23:51;9.53;84.89
78611;SHT30;67932;50.474;4.436;2023-05-17T06:26:17;9.47;85.67
78611;SHT30;67932;50.474;4.436;2023-05-17T06:28:44;9.48;85.49
78611;SHT30;67932;50.474;4.436;2023-05-17T06:31:11;9.43;85.80
78611;SHT30;67932;50.474;4.436;2023-05-17T06:33:37;9.57;85.30
78611;SHT30;67932;50.474;4.436;2023-05-17T06:36:03;9.46;85.27
78611;SHT30;67932;50.474;4.436;2023-05-17T06:38:30;9.47;85.64
78611;SHT30;67932;50.474;4.436;2023-05-17T06:40:56;9.50;86.26
78611;SHT30;67932;50.474;4.436;2023-05-17T06:43:23;9.65;85.62
78611;SHT30;67932;50.474;4.436;2023-05-17T06:45:50;9.74;85.03
78611;SHT30;67932;50.474;4.436;2023-05-17T06:48:16;9.77;85.27
78611;SHT30;67932;50.474;4.436;2023-05-17T06:50:42;9.88;84.69
78611;SHT30;67932;50.474;4.436;2023-05-17T06:53:08;10.04;84.51
78611;SHT30;67932;50.474;4.436;2023-05-17T06:55:35;10.24;84.38
78611;SHT30;67932;50.474;4.436;2023-05-17T06:58:01;10.32;83.73
78611;SHT30;67932;50.474;4.436;2023-05-17T07:00:27;10.38;83.73
78611;SHT30;67932;50.474;4.436;2023-05-17T07:02:54;10.62;83.60
78611;SHT30;67932;50.474;4.436;2023-05-17T07:05:21;10.75;82.69
78611;SHT30;67932;50.474;4.436;2023-05-17T07:07:49;10.79;82.00
78611;SHT30;67932;50.474;4.436;2023-05-17T07:10:15;10.76;81.80
78611;SHT30;67932;50.474;4.436;2023-05-17T07:12:41;10.79;81.32
78611;SHT30;67932;50.474;4.436;2023-05-17T07:15:08;10.86;81.14
78611;SHT30;67932;50.474;4.436;2023-05-17T07:17:36;10.88;80.88
78611;SHT30;67932;50.474;4.436;2023-05-17T07:20:03;11.02;80.75
78611;SHT30;67932;50.474;4.436;2023-05-17T07:22:31;10.99;80.02
78611;SHT30;67932;50.474;4.436;2023-05-17T07:24:57;10.99;80.55
78611;SHT30;67932;50.474;4.436;2023-05-17T07:27:23;11.03;80.75
78611;SHT30;67932;50.474;4.436;2023-05-17T07:29:50;11.10;81.10
78611;SHT30;67932;50.474;4.436;2023-05-17T07:32:16;11.20;80.43
78611;SHT30;67932;50.474;4.436;2023-05-17T07:34:43;11.14;80.14
78611;SHT30;67932;50.474;4.436;2023-05-17T07:37:09;11.13;79.94
78611;SHT30;67932;50.474;4.436;2023-05-17T07:39:35;11.14;80.03
78611;SHT30;67932;50.474;4.436;2023-05-17T07:42:01;11.16;80.08
78611;SHT30;67932;50.474;4.436;2023-05-17T07:44:28;11.09;77.53
78611;SHT30;67932;50.474;4.436;2023-05-17T07:46:54;11.13;78.80
78611;SHT30;67932;50.474;4.436;2023-05-17T07:49:21;11.22;78.77
78611;SHT30;67932;50.474;4.436;2023-05-17T07:51:48;11.13;78.99
78611;SHT30;67932;50.474;4.436;2023-05-17T07:54:24;11.24;78.97
78611;SHT30;67932;50.474;4.436;2023-05-17T07:56:54;11.19;77.79
78611;SHT30;67932;50.474;4.436;2023-05-17T07:59:23;11.38;77.45
78611;SHT30;67932;50.474;4.436;2023-05-17T08:01:50;11.38;77.92
78611;SHT30;67932;50.474;4.436;2023-05-17T08:04:17;11.58;76.52
78611;SHT30;67932;50.474;4.436;2023-05-17T08:06:44;11.67;75.99
78611;SHT30;67932;50.474;4.436;2023-05-17T08:09:13;11.91;75.87
78611;SHT30;67932;50.474;4.436;2023-05-17T08:11:43;12.11;75.56
78611;SHT30;67932;50.474;4.436;2023-05-17T08:14:22;12.42;74.89
78611;SHT30;67932;50.474;4.436;2023-05-17T08:16:48;12.63;72.29
78611;SHT30;67932;50.474;4.436;2023-05-17T08:19:17;12.64;71.39
78611;SHT30;67932;50.474;4.436;2023-05-17T08:21:44;12.70;71.44
78611;SHT30;67932;50.474;4.436;2023-05-17T08:24:11;12.73;70.46
78611;SHT30;67932;50.474;4.436;2023-05-17T08:26:38;12.75;71.07
78611;SHT30;67932;50.474;4.436;2023-05-17T08:29:04;12.80;70.92
78611;SHT30;67932;50.474;4.436;2023-05-17T08:31:31;12.79;70.08
78611;SHT30;67932;50.474;4.436;2023-05-17T08:33:57;12.73;70.45
78611;SHT30;67932;50.474;4.436;2023-05-17T08:36:24;12.62;70.84
78611;SHT30;67932;50.474;4.436;2023-05-17T08:38:51;12.66;70.91
78611;SHT30;67932;50.474;4.436;2023-05-17T08:41:17;12.87;70.99
78611;SHT30;67932;50.474;4.436;2023-05-17T08:43:44;13.11;70.14
78611;SHT30;67932;50.474;4.436;2023-05-17T08:46:11;13.17;69.53
78611;SHT30;67932;50.474;4.436;2023-05-17T08:48:41;13.37;69.02
78611;SHT30;67932;50.474;4.436;2023-05-17T08:51:08;13.55;68.83
78611;SHT30;67932;50.474;4.436;2023-05-17T08:53:37;13.54;67.94
78611;SHT30;67932;50.474;4.436;2023-05-17T08:56:04;13.78;67.88
78611;SHT30;67932;50.474;4.436;2023-05-17T08:58:34;13.86;67.41
78611;SHT30;67932;50.474;4.436;2023-05-17T09:01:07;13.95;66.34
78611;SHT30;67932;50.474;4.436;2023-05-17T09:03:39;13.75;65.51
78611;SHT30;67932;50.474;4.436;2023-05-17T09:06:08;13.77;65.51
78611;SHT30;67932;50.474;4.436;2023-05-17T09:08:40;13.89;64.16
78611;SHT30;67932;50.474;4.436;2023-05-17T09:11:29;13.94;63.26
78611;SHT30;67932;50.474;4.436;2023-05-17T09:14:10;13.91;63.77
78611;SHT30;67932;50.474;4.436;2023-05-17T09:16:43;13.70;62.62
78611;SHT30;67932;50.474;4.436;2023-05-17T09:19:18;13.64;63.98
78611;SHT30;67932;50.474;4.436;2023-05-17T09:21:45;13.62;63.80
78611;SHT30;67932;50.474;4.436;2023-05-17T09:24:12;13.94;63.98
78611;SHT30;67932;50.474;4.436;2023-05-17T09:26:39;14.26;62.79
78611;SHT30;67932;50.474;4.436;2023-05-17T09:29:16;14.28;61.58
78611;SHT30;67932;50.474;4.436;2023-05-17T09:31:43;14.08;62.14
78611;SHT30;67932;50.474;4.436;2023-05-17T09:34:09;14.01;61.41
78611;SHT30;67932;50.474;4.436;2023-05-17T09:36:37;13.81;61.07
78611;SHT30;67932;50.474;4.436;2023-05-17T09:39:06;13.75;62.34
78611;SHT30;67932;50.474;4.436;2023-05-17T09:41:45;13.85;62.66
78611;SHT30;67932;50.474;4.436;2023-05-17T09:44:13;13.79;61.91
78611;SHT30;67932;50.474;4.436;2023-05-17T09:46:47;13.82;62.17
78611;SHT30;67932;50.474;4.436;2023-05-17T09:49:14;14.37;60.65
78611;SHT30;67932;50.474;4.436;2023-05-17T09:51:46;14.63;59.57
78611;SHT30;67932;50.474;4.436;2023-05-17T09:54:14;14.75;59.89
78611;SHT30;67932;50.474;4.436;2023-05-17T09:56:44;14.72;58.95
78611;SHT30;67932;50.474;4.436;2023-05-17T09:59:19;14.60;60.71
78611;SHT30;67932;50.474;4.436;2023-05-17T10:01:48;14.37;58.86
78611;SHT30;67932;50.474;4.436;2023-05-17T10:04:17;14.28;58.49
78611;SHT30;67932;50.474;4.436;2023-05-17T10:06:45;14.37;60.19
78611;SHT30;67932;50.474;4.436;2023-05-17T10:09:15;14.49;60.94
78611;SHT30;67932;50.474;4.436;2023-05-17T10:11:45;14.09;59.46
78611;SHT30;67932;50.474;4.436;2023-05-17T10:14:27;14.18;60.57
78611;SHT30;67932;50.474;4.436;2023-05-17T10:16:58;14.02;61.25
78611;SHT30;67932;50.474;4.436;2023-05-17T10:19:25;14.00;61.80
78611;SHT30;67932;50.474;4.436;2023-05-17T10:21:52;14.09;61.73
78611;SHT30;67932;50.474;4.436;2023-05-17T10:24:23;14.16;61.17
78611;SHT30;67932;50.474;4.436;2023-05-17T10:30:40;14.15;61.21
78611;SHT30;67932;50.474;4.436;2023-05-17T10:33:20;14.12;59.46
78611;SHT30;67932;50.474;4.436;2023-05-17T10:35:49;14.12;60.30
78611;SHT30;67932;50.474;4.436;2023-05-17T10:38:16;14.21;60.58
78611;SHT30;67932;50.474;4.436;2023-05-17T10:40:44;14.16;59.90
78611;SHT30;67932;50.474;4.436;2023-05-17T10:43:12;14.22;59.80
78611;SHT30;67932;50.474;4.436;2023-05-17T10:46:13;14.69;58.75
78611;SHT30;67932;50.474;4.436;2023-05-17T10:48:53;15.19;56.78
78611;SHT30;67932;50.474;4.436;2023-05-17T10:51:25;16.36;51.68
78611;SHT30;67932;50.474;4.436;2023-05-17T10:54:05;16.50;50.07
78611;SHT30;67932;50.474;4.436;2023-05-17T10:57:00;16.16;50.73
78611;SHT30;67932;50.474;4.436;2023-05-17T10:59:27;15.92;50.21
78611;SHT30;67932;50.474;4.436;2023-05-17T11:04:31;15.54;52.04
78611;SHT30;67932;50.474;4.436;2023-05-17T11:10:12;16.60;49.34
78611;SHT30;67932;50.474;4.436;2023-05-17T11:12:44;16.61;48.35
78611;SHT30;67932;50.474;4.436;2023-05-17T11:15:14;17.39;46.28
78611;SHT30;67932;50.474;4.436;2023-05-17T11:25:36;16.10;48.34
78611;SHT30;67932;50.474;4.436;2023-05-17T11:30:37;16.08;48.12
78611;SHT30;67932;50.474;4.436;2023-05-17T11:33:05;16.33;47.38
78611;SHT30;67932;50.474;4.436;2023-05-17T11:35:34;15.74;48.97
78611;SHT30;67932;50.474;4.436;2023-05-17T11:38:14;15.45;49.29
78611;SHT30;67932;50.474;4.436;2023-05-17T11:40:41;15.51;50.07
78611;SHT30;67932;50.474;4.436;2023-05-17T11:43:13;15.61;48.98
78611;SHT30;67932;50.474;4.436;2023-05-17T11:48:16;17.11;43.81
78611;SHT30;67932;50.474;4.436;2023-05-17T11:50:45;16.50;45.70
78611;SHT30;67932;50.474;4.436;2023-05-17T11:53:12;16.47;44.61
78611;SHT30;67932;50.474;4.436;2023-05-17T11:55:43;16.47;45.69
78611;SHT30;67932;50.474;4.436;2023-05-17T11:58:14;16.02;48.13
78611;SHT30;67932;50.474;4.436;2023-05-17T12:00:42;15.78;48.02
78611;SHT30;67932;50.474;4.436;2023-05-17T12:03:18;15.69;47.72
78611;SHT30;67932;50.474;4.436;2023-05-17T12:05:47;16.25;44.98
78611;SHT30;67932;50.474;4.436;2023-05-17T12:08:21;15.89;45.94
78611;SHT30;67932;50.474;4.436;2023-05-17T12:10:51;15.72;47.48
78611;SHT30;67932;50.474;4.436;2023-05-17T12:13:18;15.69;48.46
78611;SHT30;67932;50.474;4.436;2023-05-17T12:15:52;17.01;44.38
78611;SHT30;67932;50.474;4.436;2023-05-17T12:18:19;17.96;42.96
78611;SHT30;67932;50.474;4.436;2023-05-17T12:20:59;17.25;43.53
78611;SHT30;67932;50.474;4.436;2023-05-17T12:23:27;16.79;43.94
78611;SHT30;67932;50.474;4.436;2023-05-17T12:26:08;16.40;45.30
78611;SHT30;67932;50.474;4.436;2023-05-17T12:28:37;16.43;45.93
78611;SHT30;67932;50.474;4.436;2023-05-17T12:31:07;16.34;46.18
78611;SHT30;67932;50.474;4.436;2023-05-17T12:33:42;16.06;47.82
78611;SHT30;67932;50.474;4.436;2023-05-17T12:36:11;16.30;46.37
78611;SHT30;67932;50.474;4.436;2023-05-17T12:38:40;17.59;42.67
78611;SHT30;67932;50.474;4.436;2023-05-17T12:41:08;19.32;39.14
78611;SHT30;67932;50.474;4.436;2023-05-17T12:43:37;20.77;37.13
78611;SHT30;67932;50.474;4.436;2023-05-17T12:46:07;21.27;34.37
78611;SHT30;67932;50.474;4.436;2023-05-17T12:48:37;22.12;33.48
78611;SHT30;67932;50.474;4.436;2023-05-17T12:51:23;22.05;33.44
78611;SHT30;67932;50.474;4.436;2023-05-17T12:53:51;20.22;36.27
78611;SHT30;67932;50.474;4.436;2023-05-17T12:56:21;18.67;39.13
78611;SHT30;67932;50.474;4.436;2023-05-17T13:01:43;17.41;41.39
78611;SHT30;67932;50.474;4.436;2023-05-17T13:04:10;19.82;37.29
78611;SHT30;67932;50.474;4.436;2023-05-17T13:06:50;20.80;34.53
78611;SHT30;67932;50.474;4.436;2023-05-17T13:09:18;19.19;37.26
78611;SHT30;67932;50.474;4.436;2023-05-17T13:11:58;20.83;35.56
78611;SHT30;67932;50.474;4.436;2023-05-17T13:17:06;21.95;32.09
78611;SHT30;67932;50.474;4.436;2023-05-17T13:19:33;20.27;34.34
78611;SHT30;67932;50.474;4.436;2023-05-17T13:22:03;19.62;35.81
78611;SHT30;67932;50.474;4.436;2023-05-17T13:24:34;18.61;39.14
78611;SHT30;67932;50.474;4.436;2023-05-17T13:27:01;17.83;41.28
78611;SHT30;67932;50.474;4.436;2023-05-17T13:29:34;17.66;42.11
78611;SHT30;67932;50.474;4.436;2023-05-17T13:32:00;19.70;38.01
78611;SHT30;67932;50.474;4.436;2023-05-17T13:34:26;20.94;35.03
78611;SHT30;67932;50.474;4.436;2023-05-17T13:36:53;20.33;35.14
78611;SHT30;67932;50.474;4.436;2023-05-17T13:39:19;19.34;37.08
78611;SHT30;67932;50.474;4.436;2023-05-17T13:41:46;18.68;38.45
78611;SHT30;67932;50.474;4.436;2023-05-17T13:44:12;17.78;40.24
78611;SHT30;67932;50.474;4.436;2023-05-17T13:46:39;18.54;37.72
78611;SHT30;67932;50.474;4.436;2023-05-17T13:49:05;20.32;35.78
78611;SHT30;67932;50.474;4.436;2023-05-17T13:51:33;21.55;34.21
78611;SHT30;67932;50.474;4.436;2023-05-17T13:54:08;22.74;32.11
78611;SHT30;67932;50.474;4.436;2023-05-17T13:56:36;22.27;32.09
78611;SHT30;67932;50.474;4.436;2023-05-17T13:59:02;21.11;33.60
78611;SHT30;67932;50.474;4.436;2023-05-17T14:01:29;21.99;31.87
78611;SHT30;67932;50.474;4.436;2023-05-17T14:03:55;22.97;30.21
78611;SHT30;67932;50.474;4.436;2023-05-17T14:06:22;22.12;31.05
78611;SHT30;67932;50.474;4.436;2023-05-17T14:08:48;20.20;34.10
78611;SHT30;67932;50.474;4.436;2023-05-17T14:11:15;19.65;35.97
78611;SHT30;67932;50.474;4.436;2023-05-17T14:13:41;19.00;36.76
78611;SHT30;67932;50.474;4.436;2023-05-17T14:16:07;20.87;34.00
78611;SHT30;67932;50.474;4.436;2023-05-17T14:18:34;22.00;31.77
78611;SHT30;67932;50.474;4.436;2023-05-17T14:21:00;22.97;29.44
78611;SHT30;67932;50.474;4.436;2023-05-17T14:23:28;23.07;29.33
78611;SHT30;67932;50.474;4.436;2023-05-17T14:25:54;22.26;30.45
78611;SHT30;67932;50.474;4.436;2023-05-17T14:28:22;21.53;32.26
78611;SHT30;67932;50.474;4.436;2023-05-17T14:30:48;19.85;34.36
78611;SHT30;67932;50.474;4.436;2023-05-17T14:33:15;20.33;33.33
78611;SHT30;67932;50.474;4.436;2023-05-17T14:35:41;21.28;32.07
78611;SHT30;67932;50.474;4.436;2023-05-17T14:38:07;22.00;30.41
78611;SHT30;67932;50.474;4.436;2023-05-17T14:40:34;22.58;29.89
78611;SHT30;67932;50.474;4.436;2023-05-17T14:43:00;23.14;29.60
78611;SHT30;67932;50.474;4.436;2023-05-17T14:45:26;22.98;29.24
78611;SHT30;67932;50.474;4.436;2023-05-17T14:47:53;22.64;29.27
78611;SHT30;67932;50.474;4.436;2023-05-17T14:50:19;21.83;29.58
78611;SHT30;67932;50.474;4.436;2023-05-17T14:52:45;22.88;28.52
78611;SHT30;67932;50.474;4.436;2023-05-17T14:55:12;23.01;28.23
78611;SHT30;67932;50.474;4.436;2023-05-17T14:57:41;23.56;28.08
78611;SHT30;67932;50.474;4.436;2023-05-17T15:00:08;22.77;28.95
78611;SHT30;67932;50.474;4.436;2023-05-17T15:02:35;23.08;27.68
78611;SHT30;67932;50.474;4.436;2023-05-17T15:05:02;23.08;27.59
78611;SHT30;67932;50.474;4.436;2023-05-17T15:07:29;22.91;27.92
78611;SHT30;67932;50.474;4.436;2023-05-17T15:09:56;23.02;28.09
78611;SHT30;67932;50.474;4.436;2023-05-17T15:12:22;22.77;27.70
78611;SHT30;67932;50.474;4.436;2023-05-17T15:14:48;22.91;28.43
78611;SHT30;67932;50.474;4.436;2023-05-17T15:17:15;22.75;28.43
78611;SHT30;67932;50.474;4.436;2023-05-17T15:19:41;23.12;28.23
78611;SHT30;67932;50.474;4.436;2023-05-17T15:22:07;23.15;28.42
78611;SHT30;67932;50.474;4.436;2023-05-17T15:24:34;23.01;28.64
78611;SHT30;67932;50.474;4.436;2023-05-17T15:27:02;21.59;31.13
78611;SHT30;67932;50.474;4.436;2023-05-17T15:29:28;22.12;30.55
78611;SHT30;67932;50.474;4.436;2023-05-17T15:31:56;22.40;30.80
78611;SHT30;67932;50.474;4.436;2023-05-17T15:34:24;22.64;30.32
78611;SHT30;67932;50.474;4.436;2023-05-17T15:36:55;22.80;29.47
78611;SHT30;67932;50.474;4.436;2023-05-17T15:39:21;21.12;32.65
78611;SHT30;67932;50.474;4.436;2023-05-17T15:41:48;20.92;32.72
78611;SHT30;67932;50.474;4.436;2023-05-17T15:44:14;19.54;34.92
78611;SHT30;67932;50.474;4.436;2023-05-17T15:46:41;19.79;34.86
78611;SHT30;67932;50.474;4.436;2023-05-17T15:49:07;20.99;34.07
78611;SHT30;67932;50.474;4.436;2023-05-17T15:51:36;21.52;31.52
78611;SHT30;67932;50.474;4.436;2023-05-17T15:54:03;22.02;30.54
78611;SHT30;67932;50.474;4.436;2023-05-17T15:56:29;22.16;29.81
78611;SHT30;67932;50.474;4.436;2023-05-17T15:58:55;22.09;30.02
78611;SHT30;67932;50.474;4.436;2023-05-17T16:01:21;22.07;29.18
78611;SHT30;67932;50.474;4.436;2023-05-17T16:03:48;22.07;29.47
78611;SHT30;67932;50.474;4.436;2023-05-17T16:06:14;21.75;30.38
78611;SHT30;67932;50.474;4.436;2023-05-17T16:08:41;21.81;29.94
78611;SHT30;67932;50.474;4.436;2023-05-17T16:11:07;22.13;29.80
78611;SHT30;67932;50.474;4.436;2023-05-17T16:13:34;22.30;30.78
78611;SHT30;67932;50.474;4.436;2023-05-17T16:16:01;22.46;29.29
78611;SHT30;67932;50.474;4.436;2023-05-17T16:18:27;22.16;29.54
78611;SHT30;67932;50.474;4.436;2023-05-17T16:21:13;22.02;31.43